Time;durP1;ratioP1;P1;durP2;ratioP2;P2;SDS_P1;SDS_P2;PMS_P1;PMS_P2;Temp;Humidity;BMP_temperature;BMP_pressure;BME280_temperature;BME280_humidity;BME280_pressure;Samples;Min_cycle;Max_cycle;Signal;HPM_P1;HPM_P2
2022/08/22 00:02:15;;;;;;;7.60;3.75;;;;;;;17.12;76.07;101528.16;4917048;29;20087;-77
2022/08/22 00:04:54;;;;;;;7.72;4.00;;;;;;;17.10;76.38;101538.19;4916682;29;20044;-77
2022/08/22 00:07:22;;;;;;;10.75;3.80;;;;;;;17.12;76.76;101530.84;4916753;29;20080;-77
2022/08/22 00:10:09;;;;;;;11.45;3.88;;;;;;;17.15;76.00;101534.09;4919810;29;20032;-77
2022/08/22 00:12:47;;;;;;;7.70;3.72;;;;;;;17.12;76.25;101537.06;4907166;29;20023;-77
2022/08/22 00:15:27;;;;;;;7.80;3.58;;;;;;;17.09;76.73;101540.03;4917609;29;20035;-77
2022/08/22 00:18:19;;;;;;;5.90;3.47;;;;;;;17.13;75.98;101538.75;4916982;29;20277;-76
2022/08/22 00:21:23;;;;;;;5.55;3.60;;;;;;;17.11;76.24;101537.22;4923327;29;20042;-76
2022/08/22 00:24:04;;;;;;;8.93;3.60;;;;;;;16.98;77.41;101532.97;4916640;29;20056;-77
2022/08/22 00:26:45;;;;;;;5.63;3.15;;;;;;;17.05;77.17;101535.94;4920063;29;20032;-77
2022/08/22 00:29:14;;;;;;;8.45;3.78;;;;;;;17.00;77.76;101530.13;4907677;29;20478;-77
2022/08/22 00:31:50;;;;;;;9.20;3.30;;;;;;;17.02;77.25;101529.03;4934428;29;20118;-77
2022/08/22 00:34:36;;;;;;;7.38;3.80;;;;;;;17.01;77.53;101534.53;4932571;29;20028;-77
2022/08/22 00:37:05;;;;;;;8.32;3.30;;;;;;;17.02;77.72;101539.75;4905748;29;20111;-77
2022/08/22 00:39:40;;;;;;;10.82;3.33;;;;;;;16.95;77.39;101533.28;4918580;29;20230;-76
2022/08/22 00:42:33;;;;;;;9.13;3.67;;;;;;;16.93;77.10;101529.88;4927142;29;20032;-77
2022/08/22 00:45:40;;;;;;;8.00;3.70;;;;;;;16.96;76.49;101542.16;4928955;29;20031;-77
2022/08/22 00:48:27;;;;;;;12.45;3.70;;;;;;;16.93;76.70;101535.22;4908723;29;20490;-77
2022/08/22 00:53:45;;;;;;;6.97;3.15;;;;;;;16.88;77.06;101542.88;4929937;29;20052;-76
2022/08/22 00:56:32;;;;;;;8.88;3.70;;;;;;;16.86;78.01;101527.91;4933436;29;20036;-75
2022/08/22 00:59:27;;;;;;;7.35;3.30;;;;;;;16.90;76.70;101538.19;4946713;29;20020;-76
2022/08/22 01:01:53;;;;;;;8.35;4.00;;;;;;;16.90;77.88;101538.19;4940260;29;20216;-76
2022/08/22 01:04:41;;;;;;;8.80;3.83;;;;;;;16.90;77.20;101545.41;4924103;29;20047;-75
2022/08/22 01:07:16;;;;;;;9.07;3.40;;;;;;;16.85;78.33;101540.47;4931442;29;20060;-76
2022/08/22 01:09:54;;;;;;;7.47;3.20;;;;;;;16.89;77.81;101533.84;4936747;29;20028;-76
2022/08/22 01:12:37;;;;;;;6.82;3.28;;;;;;;16.89;77.67;101533.84;4934160;29;20096;-77
2022/08/22 01:15:13;;;;;;;5.35;3.05;;;;;;;16.83;77.95;101532.53;4939814;29;20040;-76
2022/08/22 01:17:57;;;;;;;4.75;3.17;;;;;;;16.89;77.24;101530.31;4938365;29;20023;-77
2022/08/22 01:21:01;;;;;;;6.25;3.40;;;;;;;16.87;77.05;101532.28;4950828;29;20028;-76
2022/08/22 01:24:14;;;;;;;8.73;4.10;;;;;;;16.87;76.72;101524.22;4940302;29;20032;-76
2022/08/22 01:27:17;;;;;;;7.95;4.15;;;;;;;16.81;76.98;101514.88;4926938;29;20032;-76
2022/08/22 01:30:06;;;;;;;11.15;5.30;;;;;;;16.83;76.48;101529.84;4945416;29;20039;-78
2022/08/22 01:32:56;;;;;;;12.80;4.35;;;;;;;16.86;76.66;101533.28;4924815;29;20060;-77
2022/08/22 01:35:31;;;;;;;11.07;4.80;;;;;;;16.83;77.56;101534.38;4938769;29;20027;-77
2022/08/22 01:38:21;;;;;;;12.88;6.15;;;;;;;16.82;75.94;101530.84;4955390;29;20043;-77
2022/08/22 01:41:05;;;;;;;11.25;6.00;;;;;;;16.82;75.54;101535.38;4954258;29;20024;-77
2022/08/22 01:43:56;;;;;;;11.57;5.93;;;;;;;16.83;75.34;101532.53;4948097;29;20039;-76
2022/08/22 01:46:50;;;;;;;11.60;6.03;;;;;;;16.85;75.42;101521.69;4939332;29;20023;-76
2022/08/22 01:49:30;;;;;;;12.55;6.75;;;;;;;16.83;75.96;101520.94;4940865;29;20035;-76
2022/08/22 01:52:06;;;;;;;12.05;6.20;;;;;;;16.82;76.42;101530.00;4935130;29;20066;-76
2022/08/22 01:54:58;;;;;;;9.27;6.13;;;;;;;16.85;75.82;101521.69;4930889;29;20032;-76
2022/08/22 01:57:25;;;;;;;9.68;6.47;;;;;;;16.81;76.25;101531.81;4919050;29;20504;-76
2022/08/22 01:59:56;;;;;;;10.02;6.30;;;;;;;16.81;75.92;101518.41;4930292;29;20029;-77
2022/08/22 02:02:43;;;;;;;15.50;7.20;;;;;;;16.81;76.27;101523.78;4932506;29;20032;-77
2022/08/22 02:05:24;;;;;;;12.75;6.45;;;;;;;16.82;76.27;101527.31;4919301;29;20421;-76
2022/08/22 02:08:01;;;;;;;11.93;6.57;;;;;;;16.83;76.07;101524.47;4933139;29;20042;-77
2022/08/22 02:10:43;;;;;;;11.63;6.82;;;;;;;16.87;75.77;101524.22;4935681;29;20036;-77
2022/08/22 02:13:48;;;;;;;11.38;6.55;;;;;;;16.87;75.21;101521.53;4919111;29;20016;-77
2022/08/22 02:16:30;;;;;;;12.25;6.07;;;;;;;16.85;76.07;101519.00;4916484;29;20033;-76
2022/08/22 02:19:14;;;;;;;12.23;6.93;;;;;;;16.88;75.20;101521.41;4929846;29;20112;-76
2022/08/22 02:21:52;;;;;;;14.38;7.05;;;;;;;16.86;76.24;101518.03;4912791;29;20021;-77
2022/08/22 02:24:31;;;;;;;11.82;7.15;;;;;;;16.82;76.63;101516.59;4916949;29;20004;-75
2022/08/22 02:27:22;;;;;;;12.25;6.82;;;;;;;16.87;76.36;101514.34;4916119;29;20025;-77
2022/08/22 02:30:07;;;;;;;9.80;6.53;;;;;;;16.81;77.15;101520.25;4931036;29;20428;-78
2022/08/22 02:32:56;;;;;;;11.68;6.80;;;;;;;16.85;76.01;101520.84;4922009;29;20034;-76
2022/08/22 02:35:29;;;;;;;12.15;6.32;;;;;;;16.82;76.69;101513.91;4924943;29;20386;-77
2022/08/22 02:38:25;;;;;;;11.30;7.07;;;;;;;16.82;75.54;101513.91;4901048;29;20040;-78
2022/08/22 02:41:04;;;;;;;11.25;6.40;;;;;;;16.80;76.06;101514.03;4918646;29;20044;-76
2022/08/22 02:43:43;;;;;;;11.63;7.15;;;;;;;16.76;77.00;101512.63;4935472;29;20037;-76
2022/08/22 02:46:24;;;;;;;10.68;6.45;;;;;;;16.77;76.82;101517.00;4922661;29;20028;-77
2022/08/22 02:49:11;;;;;;;13.13;7.22;;;;;;;16.78;76.71;101512.47;4908282;29;20097;-76
2022/08/22 02:51:53;;;;;;;11.48;7.13;;;;;;;16.79;76.60;101511.50;4905970;29;20052;-76
2022/08/22 02:54:50;;;;;;;12.70;7.30;;;;;;;16.78;77.00;101512.47;4917703;29;20035;-76
2022/08/22 02:57:25;;;;;;;12.45;7.05;;;;;;;16.75;77.47;101510.06;4923798;29;20037;-78
2022/08/22 03:00:26;;;;;;;11.50;6.70;;;;;;;16.76;76.97;101506.41;4906203;29;20333;-76
2022/08/22 03:02:51;;;;;;;10.90;7.00;;;;;;;16.72;77.95;101502.31;4920440;29;20024;-76
2022/08/22 03:05:26;;;;;;;11.35;6.85;;;;;;;16.71;77.47;101506.84;4920373;29;20036;-76
2022/08/22 03:08:04;;;;;;;14.25;7.00;;;;;;;16.70;77.30;101512.34;4924100;29;20033;-77
2022/08/22 03:10:40;;;;;;;14.15;7.70;;;;;;;16.62;78.39;101513.03;4927089;29;20123;-77
2022/08/22 03:13:32;;;;;;;14.38;7.03;;;;;;;16.66;77.60;101511.78;4916426;29;20041;-77
2022/08/22 03:16:08;;;;;;;13.93;7.70;;;;;;;16.60;77.75;101505.16;4916710;29;20111;-77
2022/08/22 03:18:55;;;;;;;10.68;7.35;;;;;;;16.65;77.11;101510.94;4917388;29;20088;-77
2022/08/22 03:21:40;;;;;;;14.25;7.75;;;;;;;16.58;77.59;101506.28;4908482;29;20024;-76
2022/08/22 03:24:20;;;;;;;12.27;7.45;;;;;;;16.60;77.75;101497.13;4923013;29;20024;-76
2022/08/22 03:27:02;;;;;;;12.77;8.02;;;;;;;16.58;77.82;101488.34;4923086;29;20078;-77
2022/08/22 03:29:34;;;;;;;13.85;7.35;;;;;;;16.55;78.37;101493.13;4919753;29;20043;-76
2022/08/22 03:32:11;;;;;;;19.70;8.00;;;;;;;16.51;77.88;101494.41;4926767;29;20029;-77
2022/08/22 03:34:37;;;;;;;10.32;7.30;;;;;;;16.48;78.24;101490.16;4917290;29;20107;-77
2022/08/22 03:37:22;;;;;;;11.07;8.07;;;;;;;16.42;78.79;101488.03;4933607;29;20060;-76
2022/08/22 03:40:33;;;;;;;15.32;8.40;;;;;;;16.48;77.48;101482.13;4932605;29;20024;-76
2022/08/22 03:43:17;;;;;;;12.93;8.07;;;;;;;16.35;77.88;101482.41;4868750;29;20041;-76
2022/08/22 03:46:18;;;;;;;13.52;7.88;;;;;;;16.39;77.53;101488.34;4914003;29;20095;-76
2022/08/22 03:49:12;;;;;;;13.35;8.20;;;;;;;16.37;78.34;101474.22;4913608;29;20191;-76
2022/08/22 03:52:07;;;;;;;10.95;8.05;;;;;;;16.29;77.82;101472.25;4914304;29;20044;-77
2022/08/22 03:54:54;;;;;;;15.05;8.10;;;;;;;16.28;77.31;101476.75;4900342;29;20089;-77
2022/08/22 03:57:34;;;;;;;14.77;7.93;;;;;;;16.20;78.41;101476.59;4929340;29;20032;-76
2022/08/22 04:00:18;;;;;;;11.13;8.20;;;;;;;16.09;77.74;101456.13;4912834;29;20068;-77
2022/08/22 04:03:11;;;;;;;10.95;8.15;;;;;;;16.15;78.46;101469.97;4916067;29;20084;-76
2022/08/22 04:06:12;;;;;;;13.10;7.80;;;;;;;16.15;78.61;101475.31;4911571;29;20026;-76
2022/08/22 04:09:16;;;;;;;13.35;8.65;;;;;;;16.09;78.30;101472.22;4927559;29;20032;-75
2022/08/22 04:12:06;;;;;;;19.00;8.95;;;;;;;16.02;78.82;101468.41;4925259;29;20024;-76
2022/08/22 04:15:11;;;;;;;13.25;8.20;;;;;;;16.01;78.67;101481.94;4912850;29;20028;-77
2022/08/22 04:17:40;;;;;;;13.90;7.97;;;;;;;15.95;79.33;101485.16;4921810;29;20080;-76
2022/08/22 04:20:22;;;;;;;12.63;8.03;;;;;;;15.93;79.34;101493.34;4934616;29;20037;-77
2022/08/22 04:22:59;;;;;;;14.55;8.20;;;;;;;15.91;80.41;101493.47;4914648;29;20032;-77
2022/08/22 04:25:37;;;;;;;11.32;8.23;;;;;;;15.93;79.87;101495.16;4932578;29;20032;-77
2022/08/22 04:28:14;;;;;;;10.98;7.95;;;;;;;15.94;79.95;101491.50;4920120;29;20323;-77
2022/08/22 04:30:45;;;;;;;11.93;7.95;;;;;;;15.93;80.18;101498.69;4917764;29;20064;-77
2022/08/22 04:33:11;;;;;;;11.00;8.35;;;;;;;15.90;80.71;101498.94;4915687;29;20037;-77
2022/08/22 04:35:44;;;;;;;12.63;8.67;;;;;;;15.87;80.64;101494.72;4925993;29;20039;-77
2022/08/22 04:38:16;;;;;;;17.30;8.73;;;;;;;15.89;81.06;101499.97;4913529;29;20400;-78
2022/08/22 04:40:53;;;;;;;13.07;8.40;;;;;;;15.87;80.50;101489.38;4922652;29;20035;-76
2022/08/22 04:43:35;;;;;;;11.18;8.40;;;;;;;15.88;80.61;101493.72;4927627;29;20079;-76
2022/08/22 04:46:25;;;;;;;13.75;7.70;;;;;;;15.89;81.14;101489.25;4919916;29;20064;-78
2022/08/22 04:48:58;;;;;;;14.65;7.90;;;;;;;15.91;81.20;101495.31;4914614;29;20131;-77
2022/08/22 04:51:32;;;;;;;14.30;8.07;;;;;;;15.89;81.25;101489.25;4923903;29;20065;-78
2022/08/22 04:54:22;;;;;;;12.88;8.65;;;;;;;15.93;81.03;101496.00;4905975;29;20056;-78
2022/08/22 04:57:15;;;;;;;14.75;9.05;;;;;;;15.98;80.35;101507.16;4937994;29;20016;-77
2022/08/22 04:59:41;;;;;;;13.25;8.45;;;;;;;15.95;81.61;101504.75;4934288;29;20029;-77
2022/08/22 05:02:10;;;;;;;16.73;8.45;;;;;;;15.96;81.56;101503.78;4931642;29;20043;-76
2022/08/22 05:05:04;;;;;;;13.52;8.38;;;;;;;16.04;80.53;101505.78;4933171;29;20113;-77
2022/08/22 05:07:38;;;;;;;11.93;8.70;;;;;;;16.00;81.48;101502.50;4904903;29;20055;-77
2022/08/22 05:10:15;;;;;;;11.60;7.97;;;;;;;16.03;81.21;101506.75;4906231;29;20081;-76
2022/08/22 05:13:03;;;;;;;16.75;9.50;;;;;;;16.03;81.13;101506.75;4936658;29;20052;-77
2022/08/22 05:15:35;;;;;;;16.05;9.50;;;;;;;16.02;80.82;101502.38;4920959;29;20044;-77
2022/08/22 05:18:08;;;;;;;13.98;8.63;;;;;;;16.03;80.80;101504.06;4908326;29;20037;-77
2022/08/22 05:20:35;;;;;;;14.38;9.35;;;;;;;16.05;81.00;101507.47;4931131;29;20036;-77
2022/08/22 05:23:10;;;;;;;13.50;9.15;;;;;;;16.06;81.22;101507.31;4919882;29;20028;-77
2022/08/22 05:25:40;;;;;;;15.07;8.98;;;;;;;16.08;81.92;101513.38;4933632;29;20032;-77
2022/08/22 05:28:14;;;;;;;13.90;9.07;;;;;;;16.13;81.32;101509.47;4936626;29;20067;-77
2022/08/22 05:30:44;;;;;;;12.57;9.10;;;;;;;16.13;81.88;101522.88;4897788;29;20032;-77
2022/08/22 05:33:24;;;;;;;15.18;8.88;;;;;;;16.12;81.68;101514.00;4898470;29;20037;-77
2022/08/22 05:35:59;;;;;;;17.33;9.75;;;;;;;16.19;82.52;101527.69;4906823;29;20048;-77
2022/08/22 05:38:30;;;;;;;16.23;9.38;;;;;;;16.18;82.03;101513.41;4892775;29;20056;-77
2022/08/22 05:41:05;;;;;;;13.07;9.15;;;;;;;16.27;81.85;101514.44;4886144;29;20029;-78
2022/08/22 05:43:35;;;;;;;13.82;8.93;;;;;;;16.29;81.51;101515.16;4924718;29;20020;-78
2022/08/22 05:46:05;;;;;;;14.07;9.80;;;;;;;16.32;82.01;101522.03;4914709;29;20032;-77
2022/08/22 05:48:40;;;;;;;12.38;8.77;;;;;;;16.34;81.65;101512.88;4902999;29;20044;-77
2022/08/22 05:51:20;;;;;;;14.20;9.40;;;;;;;16.37;81.46;101519.78;4920740;29;20082;-77
2022/08/22 05:53:52;;;;;;;14.05;8.98;;;;;;;16.41;81.31;101518.53;4914485;29;20044;-77
2022/08/22 05:56:30;;;;;;;15.80;9.15;;;;;;;16.44;81.75;101518.28;4909271;29;20046;-77
2022/08/22 05:59:02;;;;;;;24.58;10.18;;;;;;;16.46;81.28;101516.28;4906931;29;20043;-78
2022/08/22 06:01:36;;;;;;;15.27;9.75;;;;;;;16.45;80.56;101502.03;4896232;29;20106;-78
2022/08/22 06:04:42;;;;;;;16.25;9.55;;;;;;;16.55;80.40;101510.06;4893253;29;20033;-78
2022/08/22 06:07:22;;;;;;;15.73;8.63;;;;;;;16.57;80.02;101517.97;4903801;29;20032;-77
2022/08/22 06:10:01;;;;;;;15.90;9.07;;;;;;;16.61;80.35;101519.41;4904671;29;20140;-78
2022/08/22 06:12:45;;;;;;;15.93;9.25;;;;;;;16.69;79.36;101518.72;4894916;29;20033;-77
2022/08/22 06:15:14;;;;;;;17.70;9.45;;;;;;;16.68;80.45;101519.69;4892557;29;20124;-77
2022/08/22 06:17:45;;;;;;;14.00;9.18;;;;;;;16.70;80.10;101518.53;4891514;29;20117;-77
2022/08/22 06:20:18;;;;;;;20.10;9.55;;;;;;;16.73;80.28;101520.13;4888353;29;20060;-77
2022/08/22 06:22:50;;;;;;;15.15;9.20;;;;;;;16.76;79.83;101518.00;4898550;29;20132;-77
2022/08/22 06:25:31;;;;;;;17.67;9.32;;;;;;;16.81;79.69;101521.09;4893075;29;20053;-77
2022/08/22 06:28:01;;;;;;;14.25;9.30;;;;;;;16.88;79.56;101517.88;4893630;29;20033;-77
2022/08/22 06:30:28;;;;;;;18.70;10.02;;;;;;;16.93;79.52;101520.97;4902552;29;20154;-77
2022/08/22 06:32:59;;;;;;;14.77;10.02;;;;;;;16.89;79.25;101512.38;4897370;29;20065;-77
2022/08/22 06:38:27;;;;;;;18.88;10.23;;;;;;;17.13;79.39;101525.31;4889775;29;20128;-78
2022/08/22 06:40:54;;;;;;;22.40;10.68;;;;;;;17.18;79.29;101533.78;4887254;29;20064;-77
2022/08/22 06:43:23;;;;;;;24.55;10.50;;;;;;;17.26;79.20;101532.25;4901121;29;20128;-77
2022/08/22 06:45:49;;;;;;;18.77;10.85;;;;;;;17.31;78.99;101535.34;4895962;29;20052;-76
2022/08/22 06:48:19;;;;;;;14.90;10.18;;;;;;;17.36;79.03;101533.06;4885482;29;20029;-77
2022/08/22 06:50:51;;;;;;;21.13;11.00;;;;;;;17.41;79.11;101538.84;4899848;29;20032;-77
2022/08/22 06:53:23;;;;;;;20.48;10.90;;;;;;;17.48;78.95;101542.63;4902383;29;20056;-77
2022/08/22 06:55:53;;;;;;;17.85;10.98;;;;;;;17.53;78.64;101545.72;4913492;29;20035;-77
2022/08/22 06:58:25;;;;;;;15.13;10.57;;;;;;;17.60;79.05;101551.34;4912773;29;20032;-77
2022/08/22 07:00:56;;;;;;;19.73;11.43;;;;;;;17.68;79.05;101558.69;4904825;29;20037;-77
2022/08/22 07:03:35;;;;;;;21.77;11.02;;;;;;;17.74;79.02;101555.41;4889781;29;20037;-77
2022/08/22 07:06:02;;;;;;;19.05;11.25;;;;;;;17.74;78.60;101556.25;4912029;29;20068;-77
2022/08/22 07:08:30;;;;;;;19.50;12.20;;;;;;;17.75;78.77;101562.47;4900609;29;20505;-77
2022/08/22 07:11:14;;;;;;;18.08;11.77;;;;;;;17.85;78.90;101555.25;4908210;29;20087;-77
2022/08/22 07:13:46;;;;;;;17.50;12.00;;;;;;;17.89;78.28;101550.44;4897071;29;20037;-77
2022/08/22 07:16:11;;;;;;;17.77;11.40;;;;;;;17.94;77.87;101554.38;4888538;29;20029;-77
2022/08/22 07:18:47;;;;;;;17.90;11.73;;;;;;;17.99;77.78;101555.78;4904670;29;20039;-77
2022/08/22 07:21:23;;;;;;;18.02;12.40;;;;;;;18.02;77.61;101547.41;4899576;29;20020;-78
2022/08/22 07:23:50;;;;;;;15.10;11.60;;;;;;;18.06;77.22;101549.63;4911272;29;20033;-77
2022/08/22 07:26:29;;;;;;;18.70;11.57;;;;;;;18.15;76.80;101558.66;4892423;29;20123;-77
2022/08/22 07:29:00;;;;;;;21.65;11.73;;;;;;;18.18;75.89;101546.75;4901629;29;20044;-78
2022/08/22 07:31:36;;;;;;;14.50;11.57;;;;;;;18.22;76.02;101549.00;4907045;29;20017;-78
2022/08/22 07:34:38;;;;;;;19.02;11.60;;;;;;;18.35;76.29;101548.63;4891446;29;20115;-78
2022/08/22 07:37:38;;;;;;;16.85;11.75;;;;;;;18.46;76.22;101544.88;4893689;29;20116;-77
2022/08/22 07:40:17;;;;;;;20.20;11.48;;;;;;;18.68;74.92;101543.56;4891638;29;20462;-77
2022/08/22 07:42:59;;;;;;;16.92;12.05;;;;;;;19.09;75.05;101543.97;4884724;29;20069;-78
2022/08/22 07:45:56;;;;;;;18.83;11.40;;;;;;;19.40;73.49;101530.03;4893681;29;20017;-78
2022/08/22 07:48:31;;;;;;;19.15;11.30;;;;;;;19.66;72.03;101526.50;4893498;29;20051;-78
2022/08/22 07:50:59;;;;;;;19.23;11.10;;;;;;;19.92;70.83;101527.31;4888349;29;20116;-78
2022/08/22 07:53:38;;;;;;;17.17;10.88;;;;;;;20.30;70.86;101537.69;4885632;29;20053;-77
2022/08/22 07:56:06;;;;;;;21.20;11.15;;;;;;;20.67;69.28;101525.69;4912210;29;20509;-78
2022/08/22 07:58:34;;;;;;;16.63;10.43;;;;;;;21.25;67.94;101535.44;4903288;29;20032;-77
2022/08/22 08:01:00;;;;;;;19.73;9.95;;;;;;;21.59;64.91;101536.25;4912018;29;20044;-77
2022/08/22 08:03:28;;;;;;;16.75;9.07;;;;;;;21.87;63.55;101531.25;4903493;29;20028;-76
2022/08/22 08:05:54;;;;;;;17.83;9.40;;;;;;;22.19;62.73;101529.41;4894255;29;20027;-77
2022/08/22 08:08:36;;;;;;;13.95;8.73;;;;;;;22.35;62.60;101521.22;4897802;29;20040;-77
2022/08/22 08:11:02;;;;;;;13.48;8.75;;;;;;;22.53;61.20;101522.78;4913124;29;20040;-77
2022/08/22 08:13:34;;;;;;;18.10;8.75;;;;;;;22.82;62.37;101523.94;4897909;29;20094;-77
2022/08/22 08:16:01;;;;;;;15.90;8.90;;;;;;;23.01;62.23;101518.00;4890711;29;20033;-77
2022/08/22 08:18:32;;;;;;;17.88;8.73;;;;;;;23.23;62.02;101512.75;4889939;29;20044;-77
2022/08/22 08:21:06;;;;;;;15.38;8.23;;;;;;;23.55;59.05;101505.28;4910390;29;20044;-77
2022/08/22 08:23:40;;;;;;;15.18;8.32;;;;;;;23.86;57.65;101504.28;4903883;29;20032;-77
2022/08/22 08:26:14;;;;;;;16.63;8.77;;;;;;;24.17;57.59;101501.31;4902459;29;20056;-77
2022/08/22 08:28:45;;;;;;;18.95;7.80;;;;;;;24.11;55.26;101502.06;4917944;29;20036;-77
2022/08/22 08:31:19;;;;;;;13.75;6.65;;;;;;;24.46;55.08;101500.34;4907074;29;20029;-77
2022/08/22 08:33:49;;;;;;;19.52;7.32;;;;;;;24.54;54.06;101500.22;4910511;29;20028;-77
2022/08/22 08:36:17;;;;;;;13.98;6.78;;;;;;;24.74;53.45;101500.44;4919852;29;20056;-77
2022/08/22 08:38:50;;;;;;;15.13;5.00;;;;;;;24.83;52.99;101505.72;4907725;29;20029;-77
2022/08/22 08:41:42;;;;;;;11.30;5.20;;;;;;;24.94;54.65;101505.19;4888114;29;20048;-78
2022/08/22 08:44:32;;;;;;;10.45;4.32;;;;;;;25.09;53.56;101503.22;4903383;29;20135;-78
2022/08/22 08:47:14;;;;;;;11.00;4.32;;;;;;;25.05;52.16;101501.13;4900607;29;20140;-78
2022/08/22 08:50:15;;;;;;;8.85;4.00;;;;;;;25.11;53.51;101495.72;4896058;29;20103;-78
2022/08/22 08:53:15;;;;;;;11.82;5.38;;;;;;;24.96;52.88;101499.56;4896216;29;20049;-77
2022/08/22 08:55:56;;;;;;;14.85;4.88;;;;;;;24.85;51.43;101495.53;4904398;29;20028;-78
2022/08/22 08:58:42;;;;;;;10.07;3.30;;;;;;;24.84;51.19;101502.81;4898115;29;20033;-78
2022/08/22 09:01:41;;;;;;;11.27;4.70;;;;;;;24.80;50.76;101501.53;4897845;29;20081;-77
2022/08/22 09:04:36;;;;;;;9.98;3.38;;;;;;;24.69;50.71;101491.19;4901553;29;20029;-78
2022/08/22 09:07:31;;;;;;;10.40;3.97;;;;;;;24.68;49.29;101490.38;4907500;29;20522;-77
2022/08/22 09:10:33;;;;;;;9.20;3.63;;;;;;;24.66;50.93;101486.97;4927621;29;20110;-79
2022/08/22 09:13:19;;;;;;;9.93;3.55;;;;;;;24.60;51.12;101486.91;4927187;29;20040;-79
2022/08/22 09:16:06;;;;;;;9.15;3.40;;;;;;;24.53;51.20;101486.81;4927326;29;20037;-78
2022/08/22 09:19:15;;;;;;;9.27;3.20;;;;;;;24.56;50.61;101487.34;4898399;29;20033;-78
2022/08/22 09:22:11;;;;;;;8.88;3.13;;;;;;;24.47;51.34;101488.47;4925788;29;20110;-79
2022/08/22 09:24:46;;;;;;;9.05;3.50;;;;;;;24.29;50.56;101486.19;4892003;29;20498;-79
2022/08/22 09:27:55;;;;;;;12.93;3.17;;;;;;;24.25;50.58;101481.31;4892093;29;20052;-79
2022/08/22 09:30:25;;;;;;;9.30;3.03;;;;;;;24.15;47.13;101479.78;4877902;29;20072;-80
2022/08/22 09:32:59;;;;;;;9.93;3.20;;;;;;;24.10;49.48;101484.94;4915467;29;20056;-81
2022/08/22 09:35:57;;;;;;;10.00;3.65;;;;;;;24.15;49.76;101489.81;4894796;29;20051;-80
2022/08/22 09:38:50;;;;;;;7.63;2.80;;;;;;;24.19;49.26;101486.50;4903515;29;20088;-80
2022/08/22 09:41:43;;;;;;;7.47;2.97;;;;;;;24.23;49.97;101486.09;4909791;29;20029;-80
2022/08/22 09:44:27;;;;;;;9.43;3.53;;;;;;;24.14;49.08;101491.66;4895301;29;20029;-80
2022/08/22 09:47:03;;;;;;;8.85;3.15;;;;;;;24.09;49.52;101496.00;4896885;29;20021;-80
2022/08/22 09:49:39;;;;;;;9.27;3.80;;;;;;;24.23;49.69;101492.41;4892739;29;20025;-80
2022/08/22 09:52:42;;;;;;;12.57;3.72;;;;;;;24.37;50.53;101490.66;4893098;29;20112;-79
2022/08/22 09:55:38;;;;;;;11.40;4.18;;;;;;;24.68;50.99;101489.50;4911646;29;20064;-80
2022/08/22 09:58:05;;;;;;;6.07;3.08;;;;;;;24.92;47.99;101480.94;4922700;29;20063;-80
2022/08/22 10:00:58;;;;;;;10.10;3.10;;;;;;;25.08;48.56;101478.94;4903862;29;20037;-80
2022/08/22 10:03:42;;;;;;;8.95;3.10;;;;;;;25.16;45.22;101477.97;4902939;29;20043;-80
2022/08/22 10:06:20;;;;;;;11.57;4.00;;;;;;;25.37;45.25;101477.09;4906850;29;20059;-80
2022/08/22 10:09:01;;;;;;;11.20;2.97;;;;;;;25.50;46.18;101466.28;4921729;29;20114;-79
2022/08/22 10:12:09;;;;;;;11.02;3.10;;;;;;;25.60;45.15;101474.09;4920125;29;20028;-80
2022/08/22 10:14:45;;;;;;;9.32;2.97;;;;;;;25.80;44.11;101468.72;4883702;29;20048;-80
2022/08/22 10:17:17;;;;;;;7.63;3.08;;;;;;;26.03;42.94;101462.97;4901460;29;20064;-80
2022/08/22 10:19:51;;;;;;;6.78;3.05;;;;;;;26.29;42.97;101447.72;4889309;29;20035;-80
2022/08/22 10:22:50;;;;;;;9.70;3.15;;;;;;;26.46;42.87;101450.88;4889175;29;20081;-80
2022/08/22 10:25:23;;;;;;;12.23;3.17;;;;;;;26.56;42.29;101460.34;4911397;29;20037;-81
2022/08/22 10:28:07;;;;;;;9.65;2.60;;;;;;;26.89;41.52;101455.94;4895100;29;20088;-80
2022/08/22 10:31:04;;;;;;;11.20;2.67;;;;;;;27.18;41.08;101454.66;4898553;29;20047;-80
2022/08/22 10:33:38;;;;;;;6.25;2.35;;;;;;;27.33;40.61;101443.53;4904261;29;20032;-81
2022/08/22 10:36:16;;;;;;;9.85;3.17;;;;;;;27.57;37.96;101452.88;4896973;29;20032;-81
2022/08/22 10:38:49;;;;;;;7.22;3.00;;;;;;;27.79;38.59;101447.94;4887220;29;20395;-80
2022/08/22 10:41:35;;;;;;;11.02;3.00;;;;;;;27.79;39.22;101438.91;4906444;29;20491;-80
2022/08/22 10:44:18;;;;;;;6.60;2.88;;;;;;;27.86;38.27;101439.72;4908418;29;20064;-80
2022/08/22 10:47:11;;;;;;;9.20;3.10;;;;;;;28.06;40.65;101436.91;4890948;29;20031;-80
2022/08/22 10:49:49;;;;;;;8.45;2.97;;;;;;;28.17;37.81;101433.47;4883114;29;20025;-81
2022/08/22 10:52:32;;;;;;;8.90;2.75;;;;;;;28.33;38.33;101432.09;4896472;29;20124;-81
2022/08/22 10:55:23;;;;;;;8.15;2.85;;;;;;;28.27;38.45;101429.44;4882737;29;20041;-80
2022/08/22 10:58:23;;;;;;;8.25;2.25;;;;;;;28.31;37.98;101428.78;4891755;29;20104;-80
2022/08/22 11:00:56;;;;;;;6.30;2.20;;;;;;;28.29;36.34;101424.56;4880051;29;20139;-79
2022/08/22 11:03:58;;;;;;;9.25;2.42;;;;;;;28.19;37.51;101431.34;4899383;29;20020;-79
2022/08/22 11:06:42;;;;;;;7.13;2.50;;;;;;;28.10;37.44;101426.41;4894427;29;20037;-79
2022/08/22 11:09:26;;;;;;;8.27;2.78;;;;;;;27.95;35.93;101435.72;4884064;29;20411;-79
2022/08/22 11:12:09;;;;;;;7.93;2.53;;;;;;;27.83;36.40;101429.25;4882246;29;20044;-80
2022/08/22 11:14:53;;;;;;;9.18;2.60;;;;;;;27.76;39.67;101425.69;4899652;29;20040;-78
2022/08/22 11:17:40;;;;;;;9.48;2.80;;;;;;;27.78;36.94;101429.03;4913108;29;20051;-79
2022/08/22 11:20:15;;;;;;;12.40;3.08;;;;;;;27.78;35.98;101426.31;4921617;29;20028;-81
2022/08/22 11:22:59;;;;;;;8.10;3.05;;;;;;;27.75;36.24;101419.41;4895293;29;20085;-79
2022/08/22 11:25:29;;;;;;;8.85;3.03;;;;;;;27.72;36.92;101419.84;4881199;29;20109;-80
2022/08/22 11:28:18;;;;;;;7.90;3.03;;;;;;;27.82;37.56;101417.47;4895364;29;20032;-80
2022/08/22 11:31:03;;;;;;;8.02;2.80;;;;;;;27.89;37.86;101422.91;4894020;29;20044;-80
2022/08/22 11:33:39;;;;;;;6.57;3.05;;;;;;;27.76;36.83;101420.25;4885441;29;20095;-80
2022/08/22 11:36:49;;;;;;;7.60;2.83;;;;;;;27.69;37.92;101423.00;4917651;29;20032;-80
2022/08/22 11:39:24;;;;;;;5.88;2.53;;;;;;;27.59;38.54;101419.91;4915056;29;20115;-80
2022/08/22 11:42:13;;;;;;;7.60;2.47;;;;;;;27.69;37.62;101423.88;4917674;29;20036;-80
2022/08/22 11:45:00;;;;;;;9.77;2.90;;;;;;;27.72;38.42;101414.38;4917630;29;20032;-80
2022/08/22 11:47:35;;;;;;;7.30;2.78;;;;;;;27.61;36.54;101404.16;4895484;29;20037;-80
2022/08/22 11:50:15;;;;;;;6.20;2.65;;;;;;;27.65;38.42;101405.41;4884805;29;20100;-80
2022/08/22 11:52:51;;;;;;;9.80;2.92;;;;;;;27.61;38.29;101406.88;4901874;29;20071;-80
2022/08/22 11:55:25;;;;;;;11.43;2.90;;;;;;;27.42;36.62;101406.75;4918524;29;20028;-79
2022/08/22 11:58:18;;;;;;;7.10;2.63;;;;;;;27.57;37.77;101411.13;4908758;29;20028;-78
2022/08/22 12:00:52;;;;;;;6.97;2.22;;;;;;;27.44;36.02;101406.53;4924760;29;20087;-78
2022/08/22 12:03:52;;;;;;;7.13;2.55;;;;;;;27.51;39.85;101401.88;4922928;29;20505;-78
2022/08/22 12:06:45;;;;;;;9.57;2.67;;;;;;;27.54;38.24;101408.81;4898622;29;20124;-79
2022/08/22 12:09:28;;;;;;;6.57;2.45;;;;;;;27.40;38.79;101403.41;4911069;29;20041;-80
2022/08/22 12:11:58;;;;;;;7.65;2.50;;;;;;;27.34;39.02;101407.00;4911438;29;20104;-79
2022/08/22 12:14:45;;;;;;;6.80;2.72;;;;;;;27.41;38.88;101413.28;4912758;29;20437;-79
2022/08/22 12:17:29;;;;;;;10.02;2.75;;;;;;;27.30;37.04;101409.31;4899028;29;20041;-80
2022/08/22 12:20:07;;;;;;;6.78;2.60;;;;;;;27.24;38.27;101406.59;4905610;29;20516;-79
2022/08/22 12:22:42;;;;;;;7.30;2.30;;;;;;;27.20;40.80;101402.63;4913572;29;20108;-80
2022/08/22 12:25:20;;;;;;;7.45;2.47;;;;;;;27.05;38.50;101400.97;4913338;29;20366;-79
2022/08/22 12:27:54;;;;;;;9.15;2.58;;;;;;;27.03;38.73;101408.53;4917520;29;20036;-79
2022/08/22 12:30:48;;;;;;;9.93;2.58;;;;;;;27.10;40.67;101401.16;4917147;29;20039;-79